createdAt,value
2023-05-06T00:02:04.337Z,62.40
2023-05-06T00:04:31.198Z,62.24
2023-05-06T00:06:58.021Z,62.25
2023-05-06T00:09:24.767Z,63.66
2023-05-06T00:11:51.568Z,63.31
2023-05-06T00:14:18.271Z,63.39
2023-05-06T00:16:45.157Z,64.35
2023-05-06T00:19:12.492Z,64.11
2023-05-06T00:21:39.303Z,63.61
2023-05-06T00:24:06.205Z,62.81
2023-05-06T00:26:32.893Z,62.23
2023-05-06T00:28:59.538Z,62.15
2023-05-06T00:31:26.187Z,61.67
2023-05-06T00:33:52.888Z,61.81
2023-05-06T00:36:19.619Z,62.36
2023-05-06T00:38:46.258Z,62.37
2023-05-06T00:41:12.898Z,62.68
2023-05-06T00:43:39.576Z,62.43
2023-05-06T00:46:09.399Z,63.04
2023-05-06T00:48:36.308Z,63.67
2023-05-06T00:51:03.103Z,63.06
2023-05-06T00:53:30.335Z,62.63
2023-05-06T00:55:57.571Z,63.23
2023-05-06T00:58:24.152Z,62.91
2023-05-06T01:00:52.134Z,63.70
2023-05-06T01:03:19.282Z,63.16
2023-05-06T01:06:17.727Z,62.78
2023-05-06T01:08:58.669Z,62.91
2023-05-06T01:11:43.820Z,64.84
2023-05-06T01:14:28.368Z,64.25
2023-05-06T01:16:58.199Z,63.74
2023-05-06T01:19:46.528Z,62.46
2023-05-06T01:22:15.576Z,63.07
2023-05-06T01:24:44.488Z,63.09
2023-05-06T01:27:13.276Z,63.15
2023-05-06T01:29:43.060Z,62.60
2023-05-06T01:32:15.845Z,62.51
2023-05-06T01:34:49.946Z,62.58
2023-05-06T01:37:28.905Z,62.30
2023-05-06T01:39:59.922Z,63.89
2023-05-06T01:42:27.587Z,63.80
2023-05-06T01:44:56.819Z,63.71
2023-05-06T01:47:24.288Z,63.80
2023-05-06T01:49:51.209Z,64.38
2023-05-06T01:52:18.163Z,64.74
2023-05-06T01:54:44.806Z,64.94
2023-05-06T01:57:11.463Z,65.06
2023-05-06T01:59:38.122Z,65.51
2023-05-06T02:02:04.863Z,63.94
2023-05-06T02:04:32.410Z,63.33
2023-05-06T02:06:59.253Z,63.08
2023-05-06T02:09:26.073Z,62.44
2023-05-06T02:11:57.714Z,62.86
2023-05-06T02:14:24.924Z,63.14
2023-05-06T02:16:52.254Z,63.99
2023-05-06T02:19:20.633Z,64.41
2023-05-06T02:21:47.498Z,63.58
2023-05-06T02:24:14.171Z,62.89
2023-05-06T02:26:40.842Z,62.02
2023-05-06T02:29:07.508Z,62.03
2023-05-06T02:31:34.648Z,61.95
2023-05-06T02:34:01.318Z,61.78
2023-05-06T02:36:28.914Z,61.50
2023-05-06T02:38:55.952Z,65.90
2023-05-06T02:41:22.625Z,66.30
2023-05-06T02:43:49.816Z,66.00
2023-05-06T02:46:16.556Z,65.69
2023-05-06T02:48:43.264Z,66.90
2023-05-06T02:51:10.029Z,66.95
2023-05-06T02:53:36.717Z,66.30
2023-05-06T02:56:03.517Z,65.36
2023-05-06T02:58:30.274Z,65.39
2023-05-06T03:00:57.002Z,64.81
2023-05-06T03:03:23.746Z,65.55
2023-05-06T03:05:50.424Z,65.04
2023-05-06T03:08:17.057Z,64.54
2023-05-06T03:10:43.703Z,64.26
2023-05-06T03:13:10.446Z,64.26
2023-05-06T03:15:37.373Z,66.75
2023-05-06T03:18:04.157Z,66.73
2023-05-06T03:20:30.836Z,66.55
2023-05-06T03:22:59.631Z,66.36
2023-05-06T03:25:26.406Z,66.25
2023-05-06T03:27:53.674Z,66.33
2023-05-06T03:30:22.529Z,66.54
2023-05-06T03:32:51.705Z,66.66
2023-05-06T03:35:25.670Z,67.05
2023-05-06T03:37:56.230Z,66.61
2023-05-06T03:40:25.556Z,66.23
2023-05-06T03:42:52.877Z,66.30
2023-05-06T03:45:21.299Z,66.98
2023-05-06T03:47:48.649Z,67.47
2023-05-06T03:50:16.592Z,67.60
2023-05-06T03:52:43.556Z,67.12
2023-05-06T03:55:10.451Z,67.54
2023-05-06T03:57:38.873Z,67.85
2023-05-06T04:00:07.000Z,67.84
2023-05-06T04:02:43.473Z,67.34
2023-05-06T04:05:16.221Z,67.41
2023-05-06T04:07:44.254Z,68.01
2023-05-06T04:10:11.340Z,68.16
2023-05-06T04:12:39.092Z,68.23
2023-05-06T04:15:07.782Z,68.79
2023-05-06T04:17:34.950Z,68.66
2023-05-06T04:20:11.456Z,68.91
2023-05-06T04:22:39.171Z,69.12
2023-05-06T04:25:07.095Z,69.59
2023-05-06T04:27:35.461Z,69.61
2023-05-06T04:30:04.548Z,69.61
2023-05-06T04:32:34.007Z,69.11
2023-05-06T04:35:01.619Z,69.32
2023-05-06T04:37:28.433Z,68.93
2023-05-06T04:40:06.196Z,69.09
2023-05-06T04:42:35.500Z,69.17
2023-05-06T04:45:09.676Z,69.71
2023-05-06T04:47:37.870Z,69.68
2023-05-06T04:50:05.875Z,69.61
2023-05-06T04:52:32.702Z,69.82
2023-05-06T04:54:59.542Z,69.73
2023-05-06T04:57:26.472Z,69.83
2023-05-06T04:59:54.903Z,69.62
2023-05-06T05:02:22.172Z,69.90
2023-05-06T05:04:49.922Z,69.28
2023-05-06T05:07:16.678Z,69.02
2023-05-06T05:09:43.347Z,68.95
2023-05-06T05:12:10.036Z,69.14
2023-05-06T05:14:41.059Z,69.08
2023-05-06T05:17:10.044Z,69.08
2023-05-06T05:19:37.950Z,68.59
2023-05-06T05:22:04.850Z,68.28
2023-05-06T05:24:33.051Z,67.99
2023-05-06T05:26:59.685Z,67.96
2023-05-06T05:29:26.608Z,68.19
2023-05-06T05:31:54.210Z,68.45
2023-05-06T05:34:21.190Z,68.64
2023-05-06T05:36:49.179Z,69.77
2023-05-06T05:39:15.986Z,69.73
2023-05-06T05:41:45.693Z,69.90
2023-05-06T05:44:12.916Z,69.53
2023-05-06T05:46:41.351Z,69.25
2023-05-06T05:49:08.744Z,68.89
2023-05-06T05:51:35.726Z,68.74
2023-05-06T05:54:04.748Z,68.31
2023-05-06T05:56:31.687Z,68.17
2023-05-06T05:58:58.603Z,68.09
2023-05-06T06:01:25.680Z,68.13
2023-05-06T06:03:54.426Z,67.40
2023-05-06T06:06:22.238Z,66.70
2023-05-06T06:08:49.866Z,65.20
2023-05-06T06:11:17.002Z,65.12
2023-05-06T06:13:44.403Z,64.19
2023-05-06T06:16:11.399Z,62.41
2023-05-06T06:18:38.139Z,61.84
2023-05-06T06:21:04.987Z,61.61
2023-05-06T06:23:31.662Z,60.78
2023-05-06T06:25:58.795Z,61.27
2023-05-06T06:28:26.108Z,61.15
2023-05-06T06:30:53.311Z,60.50
2023-05-06T06:33:19.972Z,61.32
2023-05-06T06:35:46.623Z,60.78
2023-05-06T06:38:13.275Z,59.65
2023-05-06T06:40:39.859Z,59.15
2023-05-06T06:43:06.474Z,58.95
2023-05-06T06:45:54.866Z,59.84
2023-05-06T06:48:21.624Z,60.05
2023-05-06T06:50:48.393Z,60.89
2023-05-06T06:53:15.032Z,61.13
2023-05-06T06:55:45.598Z,59.92
2023-05-06T06:58:12.396Z,58.69
2023-05-06T07:00:39.123Z,57.47
2023-05-06T07:03:05.864Z,56.23
2023-05-06T07:05:32.501Z,53.80
2023-05-06T07:07:59.243Z,53.14
2023-05-06T07:10:25.975Z,52.42
2023-05-06T07:12:52.850Z,53.26
2023-05-06T07:15:19.502Z,53.40
2023-05-06T07:17:46.657Z,54.75
2023-05-06T07:20:13.393Z,54.68
2023-05-06T07:22:41.322Z,55.18
2023-05-06T07:25:08.639Z,53.93
2023-05-06T07:27:35.411Z,54.98
2023-05-06T07:30:02.288Z,54.72
2023-05-06T07:32:29.029Z,54.52
2023-05-06T07:34:55.779Z,54.14
2023-05-06T07:37:22.493Z,53.86
2023-05-06T07:39:49.192Z,53.77
2023-05-06T07:42:15.824Z,53.35
2023-05-06T07:44:42.560Z,52.86
2023-05-06T07:47:09.524Z,52.30
2023-05-06T07:49:36.327Z,51.22
2023-05-06T07:52:04.065Z,50.54
2023-05-06T07:54:31.716Z,49.95
2023-05-06T07:56:58.715Z,49.39
2023-05-06T07:59:25.445Z,48.68
2023-05-06T08:01:52.181Z,47.43
2023-05-06T08:04:18.941Z,46.15
2023-05-06T08:06:45.828Z,45.81
2023-05-06T08:09:16.941Z,45.51
2023-05-06T08:11:46.520Z,44.43
2023-05-06T08:14:13.190Z,42.99
2023-05-06T08:16:39.931Z,43.01
2023-05-06T08:19:06.647Z,43.15
2023-05-06T08:21:33.245Z,43.17
2023-05-06T08:23:59.891Z,43.97
2023-05-06T08:26:26.542Z,44.64
2023-05-06T08:28:53.176Z,44.53
2023-05-06T08:31:19.858Z,44.55
2023-05-06T08:33:46.596Z,42.68
2023-05-06T08:36:13.292Z,42.40
2023-05-06T08:38:39.929Z,41.49
2023-05-06T08:41:09.553Z,39.70
2023-05-06T08:43:41.996Z,37.34
2023-05-06T08:46:09.062Z,36.15
2023-05-06T08:48:37.340Z,36.34
2023-05-06T08:51:04.262Z,35.91
2023-05-06T08:53:33.275Z,34.26
2023-05-06T08:56:06.355Z,33.62
2023-05-06T08:58:35.085Z,34.36
2023-05-06T09:01:03.296Z,34.42
2023-05-06T09:03:30.865Z,34.82
2023-05-06T09:05:58.193Z,36.40
2023-05-06T09:08:25.048Z,37.50
2023-05-06T09:10:51.742Z,38.85
2023-05-06T09:13:22.288Z,39.48
2023-05-06T09:15:49.542Z,40.40
2023-05-06T09:18:16.785Z,40.62
2023-05-06T09:20:48.899Z,41.16
2023-05-06T09:23:17.255Z,40.93
2023-05-06T09:25:46.150Z,41.33
2023-05-06T09:28:14.291Z,42.13
2023-05-06T09:30:42.776Z,43.37
2023-05-06T09:33:10.356Z,43.78
2023-05-06T09:35:38.122Z,42.85
2023-05-06T09:38:07.157Z,43.09
2023-05-06T09:40:38.735Z,40.67
2023-05-06T09:43:05.745Z,36.73
2023-05-06T09:45:32.910Z,34.87
2023-05-06T09:48:00.571Z,35.00
2023-05-06T09:50:27.622Z,35.69
2023-05-06T09:52:55.748Z,36.75
2023-05-06T09:55:23.691Z,38.05
2023-05-06T09:57:50.735Z,37.62
2023-05-06T10:00:17.730Z,38.56
2023-05-06T10:02:45.544Z,39.63
2023-05-06T10:05:13.268Z,37.87
2023-05-06T10:07:44.037Z,35.14
2023-05-06T10:10:14.262Z,33.32
2023-05-06T10:12:41.060Z,34.49
2023-05-06T10:15:08.442Z,34.23
2023-05-06T10:17:38.041Z,35.04
2023-05-06T10:20:09.120Z,32.41
2023-05-06T10:23:03.405Z,29.40
2023-05-06T10:25:42.532Z,28.12
2023-05-06T10:28:13.353Z,28.88
2023-05-06T10:30:58.056Z,30.14
2023-05-06T10:33:26.154Z,33.36
2023-05-06T10:35:58.575Z,34.62
2023-05-06T10:38:32.704Z,36.11
2023-05-06T10:41:00.544Z,35.50
2023-05-06T10:43:34.464Z,36.27
2023-05-06T10:46:09.123Z,35.49
2023-05-06T10:48:59.897Z,36.43
2023-05-06T10:51:28.466Z,37.46
2023-05-06T10:54:04.455Z,35.48
2023-05-06T10:56:51.143Z,35.31
2023-05-06T10:59:23.904Z,34.72
2023-05-06T11:01:57.403Z,35.11
2023-05-06T11:04:24.139Z,34.71
2023-05-06T11:06:53.015Z,34.42
2023-05-06T11:09:26.751Z,34.97
2023-05-06T11:12:04.614Z,36.29
2023-05-06T11:14:38.777Z,36.93
2023-05-06T11:17:07.636Z,36.48
2023-05-06T11:19:36.319Z,37.02
2023-05-06T11:22:07.222Z,36.96
2023-05-06T11:24:44.130Z,38.37
2023-05-06T11:27:11.290Z,38.05
2023-05-06T11:29:38.053Z,37.63
2023-05-06T11:32:22.204Z,36.16
2023-05-06T11:34:49.063Z,36.95
2023-05-06T11:37:25.806Z,36.51
2023-05-06T11:39:52.766Z,35.83
2023-05-06T11:42:26.935Z,35.14
2023-05-06T11:44:55.371Z,35.00
2023-05-06T11:47:23.473Z,36.19
2023-05-06T11:49:53.396Z,34.17
2023-05-06T11:52:23.375Z,33.18
2023-05-06T11:54:53.532Z,31.95
2023-05-06T11:57:20.752Z,32.55
2023-05-06T11:59:53.303Z,34.41
2023-05-06T12:02:20.529Z,34.47
2023-05-06T12:04:49.906Z,35.29
2023-05-06T12:07:17.225Z,34.64
2023-05-06T12:09:49.745Z,33.09
2023-05-06T12:12:19.943Z,33.22
2023-05-06T12:14:49.260Z,35.08
2023-05-06T12:17:16.569Z,34.91
2023-05-06T12:19:43.276Z,35.64
2023-05-06T12:22:24.640Z,35.40
2023-05-06T12:24:51.515Z,35.51
2023-05-06T12:27:30.963Z,35.96
2023-05-06T12:29:57.588Z,35.50
2023-05-06T12:32:24.281Z,34.44
2023-05-06T12:34:50.931Z,35.37
2023-05-06T12:37:28.527Z,35.65
2023-05-06T12:39:58.486Z,34.43
2023-05-06T12:42:26.332Z,34.70
2023-05-06T12:44:52.987Z,34.31
2023-05-06T12:47:26.777Z,35.14
2023-05-06T12:49:55.796Z,35.39
2023-05-06T12:52:24.153Z,35.90
2023-05-06T12:54:54.787Z,35.76
2023-05-06T12:57:22.172Z,36.59
2023-05-06T12:59:50.216Z,34.40
2023-05-06T13:02:17.092Z,34.69
2023-05-06T13:04:45.253Z,34.86
2023-05-06T13:07:12.064Z,34.33
2023-05-06T13:09:38.759Z,33.93
2023-05-06T13:12:06.429Z,33.16
2023-05-06T13:14:33.072Z,34.09
2023-05-06T13:17:00.995Z,35.00
2023-05-06T13:19:32.955Z,35.51
2023-05-06T13:22:01.298Z,35.62
2023-05-06T13:24:28.779Z,35.50
2023-05-06T13:26:56.831Z,35.67
2023-05-06T13:29:23.746Z,35.15
2023-05-06T13:31:50.975Z,36.00
2023-05-06T13:34:17.872Z,35.01
2023-05-06T13:36:44.565Z,35.20
2023-05-06T13:39:11.251Z,34.34
2023-05-06T13:41:37.958Z,34.99
2023-05-06T13:44:04.966Z,33.16
2023-05-06T13:46:31.755Z,33.24
2023-05-06T13:48:58.454Z,32.52
2023-05-06T13:51:29.841Z,32.57
2023-05-06T13:53:56.467Z,32.82
2023-05-06T13:56:23.139Z,32.45
2023-05-06T13:58:49.839Z,31.48
2023-05-06T14:01:16.587Z,32.56
2023-05-06T14:03:43.263Z,32.18
2023-05-06T14:06:09.890Z,32.21
2023-05-06T14:08:36.507Z,32.80
2023-05-06T14:11:03.202Z,32.46
2023-05-06T14:13:32.335Z,31.03
2023-05-06T14:15:59.838Z,31.81
2023-05-06T14:18:27.294Z,32.14
2023-05-06T14:20:54.470Z,33.29
2023-05-06T14:23:21.078Z,31.63
2023-05-06T14:25:48.175Z,31.01
2023-05-06T14:28:15.597Z,31.30
2023-05-06T14:30:42.529Z,31.86
2023-05-06T14:33:10.028Z,31.42
2023-05-06T14:35:41.273Z,33.40
2023-05-06T14:38:08.272Z,32.61
2023-05-06T14:40:36.784Z,30.61
2023-05-06T14:43:03.568Z,29.49
2023-05-06T14:45:30.587Z,30.75
2023-05-06T14:47:57.569Z,30.43
2023-05-06T14:50:24.315Z,30.38
2023-05-06T14:52:51.030Z,30.52
2023-05-06T14:55:18.134Z,30.70
2023-05-06T14:57:44.737Z,30.91
2023-05-06T15:00:12.660Z,30.22
2023-05-06T15:02:40.779Z,30.33
2023-05-06T15:05:09.759Z,30.55
2023-05-06T15:07:36.656Z,31.77
2023-05-06T15:10:04.135Z,31.36
2023-05-06T15:12:31.702Z,31.15
2023-05-06T15:14:58.417Z,30.62
2023-05-06T15:17:25.252Z,30.90
2023-05-06T15:19:52.098Z,31.04
2023-05-06T15:22:18.773Z,30.95
2023-05-06T15:24:45.467Z,30.42
2023-05-06T15:27:12.130Z,30.11
2023-05-06T15:29:39.388Z,31.83
2023-05-06T15:32:06.949Z,30.91
2023-05-06T15:34:33.678Z,31.20
2023-05-06T15:37:03.339Z,31.42
2023-05-06T15:39:37.142Z,30.79
2023-05-06T15:42:04.175Z,32.12
2023-05-06T15:44:32.357Z,31.64
2023-05-06T15:46:59.098Z,32.05
2023-05-06T15:49:49.288Z,30.86
2023-05-06T15:52:12.406Z,30.75
2023-05-06T15:54:39.986Z,30.83
2023-05-06T15:57:07.939Z,30.85
2023-05-06T15:59:34.603Z,30.87
2023-05-06T16:02:26.193Z,30.46
2023-05-06T16:04:48.147Z,29.84
2023-05-06T16:07:15.555Z,29.50
2023-05-06T16:09:42.786Z,29.64
2023-05-06T16:12:10.048Z,29.68
2023-05-06T16:14:36.814Z,29.97
2023-05-06T16:17:03.533Z,29.55
2023-05-06T16:19:32.024Z,30.16
2023-05-06T16:21:58.795Z,29.69
2023-05-06T16:24:25.494Z,29.80
2023-05-06T16:26:52.263Z,29.22
2023-05-06T16:29:20.530Z,30.19
2023-05-06T16:31:48.378Z,29.97
2023-05-06T16:34:15.312Z,29.25
2023-05-06T16:36:42.042Z,29.03
2023-05-06T16:39:08.673Z,29.79
2023-05-06T16:41:35.383Z,29.19
2023-05-06T16:44:02.006Z,29.47
2023-05-06T16:46:28.950Z,29.11
2023-05-06T16:48:55.831Z,29.60
2023-05-06T16:51:22.756Z,30.09
2023-05-06T16:53:49.519Z,29.96
2023-05-06T16:56:16.126Z,30.08
2023-05-06T16:58:42.963Z,30.07
2023-05-06T17:01:09.930Z,30.13
2023-05-06T17:03:40.308Z,30.50
2023-05-06T17:06:07.900Z,30.28
2023-05-06T17:08:36.470Z,29.92
2023-05-06T17:11:06.680Z,29.55
2023-05-06T17:13:33.952Z,29.55
2023-05-06T17:16:00.840Z,30.39
2023-05-06T17:18:27.572Z,30.82
2023-05-06T17:20:56.602Z,30.42
2023-05-06T17:23:24.422Z,31.83
2023-05-06T17:25:51.507Z,32.56
2023-05-06T17:28:18.831Z,32.16
2023-05-06T17:30:46.139Z,31.27
2023-05-06T17:33:12.957Z,31.69
2023-05-06T17:35:39.689Z,32.16
2023-05-06T17:38:06.445Z,31.61
2023-05-06T17:40:33.213Z,33.15
2023-05-06T17:43:00.538Z,32.15
2023-05-06T17:45:28.323Z,33.96
2023-05-06T17:47:56.396Z,34.45
2023-05-06T17:50:23.294Z,34.50
2023-05-06T17:52:52.176Z,34.42
2023-05-06T17:55:21.343Z,34.56
2023-05-06T17:57:48.388Z,37.18
2023-05-06T18:00:16.584Z,36.39
2023-05-06T18:02:43.950Z,36.00
2023-05-06T18:05:11.359Z,36.06
2023-05-06T18:07:38.504Z,36.43
2023-05-06T18:10:06.089Z,37.57
2023-05-06T18:12:32.718Z,37.27
2023-05-06T18:15:00.250Z,37.70
2023-05-06T18:17:26.920Z,37.77
2023-05-06T18:19:53.658Z,38.88
2023-05-06T18:22:20.344Z,39.80
2023-05-06T18:24:47.110Z,39.97
2023-05-06T18:27:13.733Z,40.52
2023-05-06T18:29:41.286Z,40.34
2023-05-06T18:32:08.186Z,40.80
2023-05-06T18:34:35.293Z,41.63
2023-05-06T18:37:01.961Z,41.67
2023-05-06T18:39:28.713Z,41.66
2023-05-06T18:41:55.537Z,42.35
2023-05-06T18:44:22.189Z,44.02
2023-05-06T18:46:48.919Z,44.26
2023-05-06T18:49:15.698Z,44.58
2023-05-06T18:51:42.441Z,44.60
2023-05-06T18:54:09.143Z,45.33
2023-05-06T18:56:36.910Z,45.70
2023-05-06T18:59:03.624Z,46.66
2023-05-06T19:01:30.389Z,46.23
2023-05-06T19:03:57.462Z,45.76
2023-05-06T19:06:24.114Z,46.03
2023-05-06T19:08:50.767Z,45.30
2023-05-06T19:11:21.163Z,45.71
2023-05-06T19:13:49.831Z,46.13
2023-05-06T19:16:16.581Z,47.32
2023-05-06T19:18:43.413Z,47.74
2023-05-06T19:21:11.064Z,47.48
2023-05-06T19:23:37.849Z,47.67
2023-05-06T19:26:06.662Z,47.08
2023-05-06T19:28:34.223Z,46.97
2023-05-06T19:31:01.451Z,46.85
2023-05-06T19:33:28.372Z,47.12
2023-05-06T19:35:54.974Z,47.35
2023-05-06T19:38:21.626Z,47.46
2023-05-06T19:40:48.283Z,47.18
2023-05-06T19:43:14.982Z,46.39
2023-05-06T19:45:41.954Z,47.30
2023-05-06T19:48:08.875Z,48.84
2023-05-06T19:50:36.560Z,49.47
2023-05-06T19:53:03.335Z,49.58
2023-05-06T19:55:30.808Z,49.75
2023-05-06T19:57:57.751Z,50.04
2023-05-06T20:00:27.134Z,50.15
2023-05-06T20:02:56.345Z,49.49
2023-05-06T20:05:23.496Z,49.37
2023-05-06T20:07:50.902Z,49.57
2023-05-06T20:10:17.645Z,48.96
2023-05-06T20:12:44.271Z,48.89
2023-05-06T20:15:11.540Z,47.83
2023-05-06T20:17:38.788Z,47.62
2023-05-06T20:20:09.741Z,47.91
2023-05-06T20:22:37.803Z,48.13
2023-05-06T20:25:13.024Z,47.66
2023-05-06T20:27:39.974Z,47.45
2023-05-06T20:30:08.057Z,47.41
2023-05-06T20:32:35.293Z,47.75
2023-05-06T20:35:02.225Z,48.54
2023-05-06T20:37:29.347Z,48.91
2023-05-06T20:39:56.432Z,50.36
2023-05-06T20:42:23.380Z,50.20
2023-05-06T20:44:53.301Z,50.88
2023-05-06T20:47:20.111Z,50.50
2023-05-06T20:49:46.847Z,51.67
2023-05-06T20:52:14.598Z,51.43
2023-05-06T20:54:45.289Z,51.57
2023-05-06T20:57:13.996Z,51.49
2023-05-06T20:59:41.026Z,51.58
2023-05-06T21:02:07.877Z,51.42
2023-05-06T21:04:34.640Z,51.88
2023-05-06T21:07:01.393Z,52.26
2023-05-06T21:09:28.867Z,51.42
2023-05-06T21:11:56.043Z,52.27
2023-05-06T21:14:24.757Z,51.87
2023-05-06T21:16:52.177Z,52.22
2023-05-06T21:19:19.467Z,52.41
2023-05-06T21:21:46.169Z,52.16
2023-05-06T21:24:13.063Z,52.67
2023-05-06T21:26:39.922Z,52.23
2023-05-06T21:29:06.620Z,52.70
2023-05-06T21:31:33.552Z,53.08
2023-05-06T21:34:00.392Z,53.17
2023-05-06T21:36:27.170Z,51.91
2023-05-06T21:39:08.485Z,52.43
2023-05-06T21:41:36.086Z,51.90
2023-05-06T21:44:07.032Z,52.10
2023-05-06T21:46:34.964Z,51.85
2023-05-06T21:49:01.878Z,52.30
2023-05-06T21:51:32.229Z,52.49
2023-05-06T21:53:59.217Z,52.27
2023-05-06T21:56:25.865Z,52.62
2023-05-06T21:58:55.588Z,52.91
2023-05-06T22:01:23.296Z,52.99
2023-05-06T22:03:50.123Z,53.19
2023-05-06T22:06:16.843Z,53.56
2023-05-06T22:08:43.648Z,53.18
2023-05-06T22:11:10.905Z,53.56
2023-05-06T22:13:37.581Z,53.27
2023-05-06T22:16:04.532Z,53.38
2023-05-06T22:18:32.064Z,53.50
2023-05-06T22:20:59.707Z,53.04
2023-05-06T22:23:27.984Z,53.66
2023-05-06T22:25:54.662Z,53.18
2023-05-06T22:28:21.645Z,53.46
2023-05-06T22:30:48.388Z,52.89
2023-05-06T22:33:15.076Z,52.93
2023-05-06T22:35:41.782Z,53.42
2023-05-06T22:38:08.495Z,53.64
2023-05-06T22:40:35.493Z,53.99
2023-05-06T22:43:03.215Z,54.06
2023-05-06T22:45:29.926Z,54.68
2023-05-06T22:47:56.840Z,54.55
2023-05-06T22:50:24.874Z,54.77
2023-05-06T22:52:51.562Z,55.26
2023-05-06T22:55:18.235Z,55.44
2023-05-06T22:57:45.181Z,54.92
2023-05-06T23:00:12.866Z,54.83
2023-05-06T23:02:39.800Z,54.23
2023-05-06T23:05:06.669Z,54.20
2023-05-06T23:07:33.324Z,54.13
2023-05-06T23:10:00.547Z,53.32
2023-05-06T23:12:28.043Z,53.30
2023-05-06T23:14:54.677Z,53.23
2023-05-06T23:17:21.360Z,53.32
2023-05-06T23:19:47.964Z,53.11
2023-05-06T23:22:14.699Z,52.96
2023-05-06T23:24:42.225Z,53.42
2023-05-06T23:27:08.982Z,53.38
2023-05-06T23:29:36.021Z,53.35
2023-05-06T23:32:02.851Z,53.27
2023-05-06T23:34:29.498Z,53.46
2023-05-06T23:36:56.550Z,53.58
2023-05-06T23:39:23.347Z,53.92
2023-05-06T23:41:50.097Z,54.32
2023-05-06T23:44:16.800Z,54.24
2023-05-06T23:46:43.462Z,54.73
2023-05-06T23:49:10.179Z,54.97
2023-05-06T23:51:36.868Z,55.31
2023-05-06T23:54:03.552Z,55.47
2023-05-06T23:56:30.208Z,55.84
2023-05-06T23:58:56.917Z,55.45
